最新 今天 统计 地图 地球 设置 关于

今天收到的 9A3XK 120 APRS数据包 下载轨迹 aprs.fi hamclub hellocq 本站 本站轨迹

时间msgraw packet
2020-04-03 04:07:289A3XK>APMI06,TCPIP*,qAC,APRSFI-I1:T#032,025,019,007,22218,083,00000000
2020-04-03 04:06:549A3XK>BEACON,WIDE1-1,qAR,E79XZA-10:Power 9W Gain 3dB Height 240m Ant omni
2020-04-03 04:02:289A3XK>APMI06,TCPIP*,qAC,APRSFI-I1:T#031,039,020,011,22213,083,00000000
2020-04-03 03:57:289A3XK>APMI06,TCPIP*,qAC,APRSFI-I1:T#030,038,020,007,22212,083,00000000
2020-04-03 03:56:549A3XK>BEACON,WIDE1-1,qAR,E79XZA-10:Power 9W Gain 3dB Height 240m Ant omni
2020-04-03 03:56:34!4522.10N/01814.60EIiGate&W2 DJAKOVO CRLNet.108 http://elco.hr9A3XK>APMI06,WIDE2-2,qAR,E79XZA-10:!4522.10N/01814.60EIiGate&W2 DJAKOVO CRLNet.108 http://elco.hr
2020-04-03 03:53:299A3XK>APMI06,WIDE1-1,qAR,E79XZA-10:T#029,032,019,006,22209,083,00000000
2020-04-03 03:52:289A3XK>APMI06,TCPIP*,qAC,APRSFI-I1:T#028,031,019,006,22209,083,00000000
2020-04-03 03:47:289A3XK>APMI06,TCPIP*,qAC,APRSFI-I1:T#027,033,019,008,22213,083,00000000
2020-04-03 03:46:539A3XK>BEACON,TCPIP*,qAC,APRSFI-I1:Power 9W Gain 3dB Height 240m Ant omni
2020-04-03 03:46:449A3XK>BEACON,WIDE1-1,qAR,E79XZA-10:CRLNet.108 - SysOp 9a3XK & 9a7kxp-Internet via DJWIRELES http://djw.hr/
2020-04-03 03:46:389A3XK>APMI06,TCPIP*,qAC,APRSFI-I1:>http://crlnet.it - WX3IN1 Plus 2.0 - v1.13 - 2.8C - 12.1V
2020-04-03 03:46:33!4522.10N/01814.60EIiGate&W2 DJAKOVO CRLNet.108 http://elco.hr9A3XK>APMI06,TCPIP*,qAC,APRSFI-I1:!4522.10N/01814.60EIiGate&W2 DJAKOVO CRLNet.108 http://elco.hr
2020-04-03 03:42:289A3XK>APMI06,TCPIP*,qAC,APRSFI-I1:T#026,033,020,009,22212,083,00000000
2020-04-03 03:37:289A3XK>APMI06,TCPIP*,qAC,APRSFI-I1:T#025,024,022,008,22213,083,00000000
2020-04-03 03:36:559A3XK>BEACON,WIDE1-1,qAR,E79XZA-10:Power 9W Gain 3dB Height 240m Ant omni
2020-04-03 03:32:289A3XK>APMI06,TCPIP*,qAC,APRSFI-I1:T#024,029,023,008,22209,083,00000000
2020-04-03 03:31:34!4522.10N/01814.60EIiGate&W2 DJAKOVO CRLNet.108 http://elco.hr9A3XK>APMI06,WIDE2-2,qAR,E79XZA-10:!4522.10N/01814.60EIiGate&W2 DJAKOVO CRLNet.108 http://elco.hr
2020-04-03 03:27:289A3XK>APMI06,TCPIP*,qAC,APRSFI-I1:T#023,020,024,005,22205,083,00000000
2020-04-03 03:26:549A3XK>BEACON,WIDE1-1,qAR,E79XZA-10:Power 9W Gain 3dB Height 240m Ant omni
2020-04-03 03:24:299A3XK>APMI06,WIDE1-1,qAR,E79XZA-10:T#022,021,024,004,22205,083,00000000
2020-04-03 03:22:289A3XK>APMI06,TCPIP*,qAC,APRSFI-I1:T#021,023,024,005,22205,083,00000000
2020-04-03 03:17:289A3XK>APMI06,TCPIP*,qAC,APRSFI-I1:T#020,023,024,004,22202,083,00000000
2020-04-03 03:17:219A3XK>APMI06,WIDE1-1,qAR,E79XZA-10::9A3XK :BITS.11111111,DJAKOVO 5' Stats.
2020-04-03 03:17:209A3XK>APMI06,WIDE1-1,qAR,E79XZA-10::9A3XK :EQNS.0,1,0,0,10,0,0,1,0,0,0.001,0,0,1,0
2020-04-03 03:17:209A3XK>APMI06,WIDE1-1,qAR,E79XZA-10::9A3XK :UNIT.Pkt,Pkt,Pkt,Pcnt,Pcnt,On,On,On,On,Hi,Hi,Hi,Hi
2020-04-03 03:16:539A3XK>BEACON,TCPIP*,qAC,APRSFI-I1:Power 9W Gain 3dB Height 240m Ant omni
2020-04-03 03:16:449A3XK>BEACON,WIDE1-1,qAR,E79XZA-10:CRLNet.108 - SysOp 9a3XK & 9a7kxp-Internet via DJWIRELES http://djw.hr/
2020-04-03 03:16:389A3XK>APMI06,TCPIP*,qAC,APRSFI-I1:>http://crlnet.it - WX3IN1 Plus 2.0 - v1.13 - 2.9C - 12.1V
2020-04-03 03:16:33!4522.10N/01814.60EIiGate&W2 DJAKOVO CRLNet.108 http://elco.hr9A3XK>APMI06,TCPIP*,qAC,APRSFI-I1:!4522.10N/01814.60EIiGate&W2 DJAKOVO CRLNet.108 http://elco.hr
2020-04-03 03:12:289A3XK>APMI06,TCPIP*,qAC,APRSFI-I1:T#019,036,027,010,22205,083,00000000
2020-04-03 03:07:289A3XK>APMI06,TCPIP*,qAC,APRSFI-I1:T#018,033,026,008,22206,083,00000000
2020-04-03 03:06:559A3XK>BEACON,WIDE1-1,qAR,E79XZA-10:Power 9W Gain 3dB Height 240m Ant omni
2020-04-03 03:06:34!4522.10N/01814.60EIiGate&W2 DJAKOVO CRLNet.108 http://elco.hr9A3XK>APMI06,WIDE2-2,qAR,E79XZA-10:!4522.10N/01814.60EIiGate&W2 DJAKOVO CRLNet.108 http://elco.hr
2020-04-03 03:02:289A3XK>APMI06,TCPIP*,qAC,APRSFI-I1:T#017,032,026,007,22200,083,00000000
2020-04-03 02:57:289A3XK>APMI06,TCPIP*,qAC,APRSFI-I1:T#016,032,026,007,22202,083,00000000
2020-04-03 02:56:549A3XK>BEACON,WIDE1-1,qAR,E79XZA-10:Power 9W Gain 3dB Height 240m Ant omni
2020-04-03 02:55:299A3XK>APMI06,WIDE1-1,qAR,E79XZA-10:T#015,042,026,010,22202,083,00000000
2020-04-03 02:52:289A3XK>APMI06,TCPIP*,qAC,APRSFI-I1:T#014,045,026,008,22201,083,00000000
2020-04-03 02:47:289A3XK>APMI06,TCPIP*,qAC,APRSFI-I1:T#013,063,026,011,22202,083,00000000
2020-04-03 02:46:539A3XK>BEACON,TCPIP*,qAC,APRSFI-I1:Power 9W Gain 3dB Height 240m Ant omni
2020-04-03 02:46:449A3XK>BEACON,WIDE1-1,qAR,E79XZA-10:CRLNet.108 - SysOp 9a3XK & 9a7kxp-Internet via DJWIRELES http://djw.hr/
2020-04-03 02:46:389A3XK>APMI06,TCPIP*,qAC,APRSFI-I1:>http://crlnet.it - WX3IN1 Plus 2.0 - v1.13 - 2.9C - 12.1V
2020-04-03 02:46:33!4522.10N/01814.60EIiGate&W2 DJAKOVO CRLNet.108 http://elco.hr9A3XK>APMI06,TCPIP*,qAC,APRSFI-I1:!4522.10N/01814.60EIiGate&W2 DJAKOVO CRLNet.108 http://elco.hr
2020-04-03 02:42:289A3XK>APMI06,TCPIP*,qAC,APRSFI-I1:T#012,057,025,014,22205,083,00000000
2020-04-03 02:41:34!4522.10N/01814.60EIiGate&W2 DJAKOVO CRLNet.108 http://elco.hr9A3XK>APMI06,WIDE2-2,qAR,E79XZA-10:!4522.10N/01814.60EIiGate&W2 DJAKOVO CRLNet.108 http://elco.hr
2020-04-03 02:37:289A3XK>APMI06,TCPIP*,qAC,APRSFI-I1:T#011,033,021,005,22205,083,00000000
2020-04-03 02:36:549A3XK>BEACON,WIDE1-1,qAR,E79XZA-10:Power 9W Gain 3dB Height 240m Ant omni
2020-04-03 02:32:289A3XK>APMI06,TCPIP*,qAC,APRSFI-I1:T#010,036,022,008,22202,083,00000000
2020-04-03 02:27:289A3XK>APMI06,TCPIP*,qAC,APRSFI-I1:T#009,028,022,006,22206,083,00000000
2020-04-03 02:26:549A3XK>BEACON,WIDE1-1,qAR,E79XZA-10:Power 9W Gain 3dB Height 240m Ant omni
2020-04-03 02:26:309A3XK>APMI06,WIDE1-1,qAR,E79XZA-10:T#008,036,022,010,22203,083,00000000
2020-04-03 02:22:289A3XK>APMI06,TCPIP*,qAC,APRSFI-I1:T#007,048,022,012,22204,083,00000000
2020-04-03 02:17:289A3XK>APMI06,TCPIP*,qAC,APRSFI-I1:T#006,038,022,007,22202,083,00000000
2020-04-03 02:16:539A3XK>BEACON,TCPIP*,qAC,APRSFI-I1:Power 9W Gain 3dB Height 240m Ant omni
2020-04-03 02:16:449A3XK>BEACON,WIDE1-1,qAR,E79XZA-10:CRLNet.108 - SysOp 9a3XK & 9a7kxp-Internet via DJWIRELES http://djw.hr/
2020-04-03 02:16:399A3XK>APMI06,TCPIP*,qAC,APRSFI-I1:>http://crlnet.it - WX3IN1 Plus 2.0 - v1.13 - 3.0C - 12.1V
2020-04-03 02:16:33!4522.10N/01814.60EIiGate&W2 DJAKOVO CRLNet.108 http://elco.hr9A3XK>APMI06,TCPIP*,qAC,APRSFI-I1:!4522.10N/01814.60EIiGate&W2 DJAKOVO CRLNet.108 http://elco.hr
2020-04-03 02:12:289A3XK>APMI06,TCPIP*,qAC,APRSFI-I1:T#005,029,023,008,22201,083,00000000
2020-04-03 02:07:299A3XK>APMI06,TCPIP*,qAC,APRSFI-I1:T#004,027,024,004,22202,083,00000000
2020-04-03 02:06:549A3XK>BEACON,WIDE1-1,qAR,E79XZA-10:Power 9W Gain 3dB Height 240m Ant omni
2020-04-03 02:02:289A3XK>APMI06,TCPIP*,qAC,APRSFI-I1:T#003,033,025,010,22198,083,00000000
2020-04-03 01:57:299A3XK>APMI06,WIDE1-1,qAR,E79XZA-10:T#001,037,026,016,22201,083,00000000
2020-04-03 01:57:289A3XK>APMI06,TCPIP*,qAC,APRSFI-I1:T#002,037,026,016,22201,083,00000000
2020-04-03 01:56:549A3XK>BEACON,WIDE1-1,qAR,E79XZA-10:Power 9W Gain 3dB Height 240m Ant omni
2020-04-03 01:52:289A3XK>APMI06,TCPIP*,qAC,APRSFI-I1:T#000,038,026,012,22193,083,00000000
2020-04-03 01:51:34!4522.10N/01814.60EIiGate&W2 DJAKOVO CRLNet.108 http://elco.hr9A3XK>APMI06,WIDE2-2,qAR,E79XZA-10:!4522.10N/01814.60EIiGate&W2 DJAKOVO CRLNet.108 http://elco.hr
2020-04-03 01:47:289A3XK>APMI06,TCPIP*,qAC,APRSFI-I1:T#255,021,026,003,22182,083,00000000
2020-04-03 01:46:549A3XK>BEACON,TCPIP*,qAC,APRSFI-I1:Power 9W Gain 3dB Height 240m Ant omni
2020-04-03 01:46:449A3XK>BEACON,WIDE1-1,qAR,E79XZA-10:CRLNet.108 - SysOp 9a3XK & 9a7kxp-Internet via DJWIRELES http://djw.hr/
2020-04-03 01:46:389A3XK>APMI06,TCPIP*,qAC,APRSFI-I1:>http://crlnet.it - WX3IN1 Plus 2.0 - v1.13 - 3.0C - 12.1V
2020-04-03 01:46:34!4522.10N/01814.60EIiGate&W2 DJAKOVO CRLNet.108 http://elco.hr9A3XK>APMI06,TCPIP*,qAC,APRSFI-I1:!4522.10N/01814.60EIiGate&W2 DJAKOVO CRLNet.108 http://elco.hr
2020-04-03 01:42:299A3XK>APMI06,TCPIP*,qAC,APRSFI-I1:T#254,033,027,008,22185,083,00000000
2020-04-03 01:37:289A3XK>APMI06,TCPIP*,qAC,APRSFI-I1:T#253,035,028,007,22186,083,00000000
2020-04-03 01:36:549A3XK>BEACON,WIDE1-1,qAR,E79XZA-10:Power 9W Gain 3dB Height 240m Ant omni
2020-04-03 01:32:289A3XK>APMI06,TCPIP*,qAC,APRSFI-I1:T#252,033,030,009,22184,083,00000000
2020-04-03 01:28:299A3XK>APMI06,WIDE1-1,qAR,E79XZA-10:T#251,041,031,014,22184,083,00000000
2020-04-03 01:27:299A3XK>APMI06,TCPIP*,qAC,APRSFI-I1:T#250,038,031,013,22185,083,00000000
2020-04-03 01:26:549A3XK>BEACON,WIDE1-1,qAR,E79XZA-10:Power 9W Gain 3dB Height 240m Ant omni
2020-04-03 01:26:34!4522.10N/01814.60EIiGate&W2 DJAKOVO CRLNet.108 http://elco.hr9A3XK>APMI06,WIDE2-2,qAR,E79XZA-10:!4522.10N/01814.60EIiGate&W2 DJAKOVO CRLNet.108 http://elco.hr
2020-04-03 01:22:289A3XK>APMI06,TCPIP*,qAC,APRSFI-I1:T#249,054,031,013,22180,083,00000000
2020-04-03 01:17:299A3XK>APMI06,TCPIP*,qAC,APRSFI-I1:T#248,050,030,009,22175,083,00000000
2020-04-03 01:16:539A3XK>BEACON,TCPIP*,qAC,APRSFI-I1:Power 9W Gain 3dB Height 240m Ant omni
2020-04-03 01:16:449A3XK>BEACON,WIDE1-1,qAR,E79XZA-10:CRLNet.108 - SysOp 9a3XK & 9a7kxp-Internet via DJWIRELES http://djw.hr/
2020-04-03 01:16:399A3XK>APMI06,TCPIP*,qAC,APRSFI-I1:>http://crlnet.it - WX3IN1 Plus 2.0 - v1.13 - 3.1C - 12.1V
2020-04-03 01:16:34!4522.10N/01814.60EIiGate&W2 DJAKOVO CRLNet.108 http://elco.hr9A3XK>APMI06,TCPIP*,qAC,APRSFI-I1:!4522.10N/01814.60EIiGate&W2 DJAKOVO CRLNet.108 http://elco.hr
2020-04-03 01:12:299A3XK>APMI06,TCPIP*,qAC,APRSFI-I1:T#247,040,028,006,22174,083,00000000
2020-04-03 01:07:299A3XK>APMI06,TCPIP*,qAC,APRSFI-I1:T#246,044,029,009,22177,083,00000000
2020-04-03 01:06:549A3XK>BEACON,WIDE1-1,qAR,E79XZA-10:Power 9W Gain 3dB Height 240m Ant omni
2020-04-03 01:02:289A3XK>APMI06,TCPIP*,qAC,APRSFI-I1:T#245,047,028,015,22180,083,00000000
2020-04-03 01:01:34!4522.10N/01814.60EIiGate&W2 DJAKOVO CRLNet.108 http://elco.hr9A3XK>APMI06,WIDE2-2,qAR,E79XZA-10:!4522.10N/01814.60EIiGate&W2 DJAKOVO CRLNet.108 http://elco.hr
2020-04-03 00:59:299A3XK>APMI06,WIDE1-1,qAR,E79XZA-10:T#244,045,027,012,22181,083,00000000
2020-04-03 00:57:299A3XK>APMI06,TCPIP*,qAC,APRSFI-I1:T#243,045,027,011,22176,083,00000000
2020-04-03 00:56:549A3XK>BEACON,WIDE1-1,qAR,E79XZA-10:Power 9W Gain 3dB Height 240m Ant omni
2020-04-03 00:52:299A3XK>APMI06,TCPIP*,qAC,APRSFI-I1:T#242,040,026,008,22170,083,00000000
2020-04-03 00:47:299A3XK>APMI06,TCPIP*,qAC,APRSFI-I1:T#241,038,025,005,22173,083,00000000
2020-04-03 00:46:549A3XK>BEACON,TCPIP*,qAC,APRSFI-I1:Power 9W Gain 3dB Height 240m Ant omni
2020-04-03 00:46:459A3XK>BEACON,WIDE1-1,qAR,E79XZA-10:CRLNet.108 - SysOp 9a3XK & 9a7kxp-Internet via DJWIRELES http://djw.hr/
2020-04-03 00:46:399A3XK>APMI06,TCPIP*,qAC,APRSFI-I1:>http://crlnet.it - WX3IN1 Plus 2.0 - v1.13 - 3.1C - 12.1V
2020-04-03 00:46:34!4522.10N/01814.60EIiGate&W2 DJAKOVO CRLNet.108 http://elco.hr9A3XK>APMI06,TCPIP*,qAC,APRSFI-I1:!4522.10N/01814.60EIiGate&W2 DJAKOVO CRLNet.108 http://elco.hr
2020-04-03 00:42:299A3XK>APMI06,TCPIP*,qAC,APRSFI-I1:T#240,064,026,012,22172,083,00000000
2020-04-03 00:37:299A3XK>APMI06,TCPIP*,qAC,APRSFI-I1:T#239,056,025,012,22177,083,00000000
2020-04-03 00:36:559A3XK>BEACON,WIDE1-1,qAR,E79XZA-10:Power 9W Gain 3dB Height 240m Ant omni
2020-04-03 00:36:37!4522.10N/01814.60EIiGate&W2 DJAKOVO CRLNet.108 http://elco.hr9A3XK>APMI06,E79VTR-11*,WIDE2-1,qAR,9A5CAN-11:!4522.10N/01814.60EIiGate&W2 DJAKOVO CRLNet.108 http://elco.hr
2020-04-03 00:32:299A3XK>APMI06,TCPIP*,qAC,APRSFI-I1:T#238,041,023,007,22176,083,00000000
2020-04-03 00:30:299A3XK>APMI06,WIDE1-1,qAR,E79XZA-10:T#237,035,022,008,22180,083,00000000
2020-04-03 00:27:299A3XK>APMI06,TCPIP*,qAC,APRSFI-I1:T#236,028,022,006,22181,083,00000000
2020-04-03 00:26:559A3XK>BEACON,WIDE1-1,qAR,E79XZA-10:Power 9W Gain 3dB Height 240m Ant omni
2020-04-03 00:22:299A3XK>APMI06,TCPIP*,qAC,APRSFI-I1:T#235,029,022,008,22181,083,00000000
2020-04-03 00:17:299A3XK>APMI06,TCPIP*,qAC,APRSFI-I1:T#234,036,023,011,22180,083,00000000
2020-04-03 00:16:549A3XK>BEACON,TCPIP*,qAC,APRSFI-I1:Power 9W Gain 3dB Height 240m Ant omni
2020-04-03 00:16:449A3XK>BEACON,WIDE1-1,qAR,E79XZA-10:CRLNet.108 - SysOp 9a3XK & 9a7kxp-Internet via DJWIRELES http://djw.hr/
2020-04-03 00:16:399A3XK>APMI06,TCPIP*,qAC,APRSFI-I1:>http://crlnet.it - WX3IN1 Plus 2.0 - v1.13 - 3.1C - 12.1V
2020-04-03 00:16:34!4522.10N/01814.60EIiGate&W2 DJAKOVO CRLNet.108 http://elco.hr9A3XK>APMI06,TCPIP*,qAC,APRSFI-I1:!4522.10N/01814.60EIiGate&W2 DJAKOVO CRLNet.108 http://elco.hr
2020-04-03 00:12:299A3XK>APMI06,TCPIP*,qAC,APRSFI-I1:T#233,043,025,012,22179,083,00000000
2020-04-03 00:11:34!4522.10N/01814.60EIiGate&W2 DJAKOVO CRLNet.108 http://elco.hr9A3XK>APMI06,WIDE2-2,qAR,E79XZA-10:!4522.10N/01814.60EIiGate&W2 DJAKOVO CRLNet.108 http://elco.hr
2020-04-03 00:07:299A3XK>APMI06,TCPIP*,qAC,APRSFI-I1:T#232,030,022,005,22175,083,00000000
2020-04-03 00:06:549A3XK>BEACON,WIDE1-1,qAR,E79XZA-10:Power 9W Gain 3dB Height 240m Ant omni
2020-04-03 00:02:299A3XK>APMI06,TCPIP*,qAC,APRSFI-I1:T#231,034,023,007,22173,083,00000000
2020-04-03 00:01:299A3XK>APMI06,WIDE1-1,qAR,E79XZA-10:T#230,033,023,007,22174,083,00000000